Time;durP1;ratioP1;P1;durP2;ratioP2;P2;SDS_P1;SDS_P2;PMS_P1;PMS_P2;Temp;Humidity;BMP_temperature;BMP_pressure;BME280_temperature;BME280_humidity;BME280_pressure;Samples;Min_cycle;Max_cycle;Signal;HPM_P1;HPM_P2
2022/09/04 00:00:10;;;;;;;9.48;6.60;;;;;;;14.07;93.93;99935.47;4970876;28;20042;-86
2022/09/04 00:02:50;;;;;;;8.65;6.78;;;;;;;14.06;93.87;99933.78;4970991;28;20030;-86
2022/09/04 00:05:27;;;;;;;10.90;7.30;;;;;;;14.03;94.28;99928.75;5014742;28;20041;-86
2022/09/04 00:08:23;;;;;;;8.82;6.55;;;;;;;14.06;94.29;99935.56;5013164;28;20443;-86
2022/09/04 00:11:17;;;;;;;8.77;6.63;;;;;;;14.04;94.20;99929.59;5013081;28;20544;-86
2022/09/04 00:13:58;;;;;;;9.77;6.90;;;;;;;14.02;94.17;99927.03;5029720;28;20029;-87
2022/09/04 00:16:36;;;;;;;7.85;6.50;;;;;;;14.00;94.17;99930.69;5012909;28;20037;-86
2022/09/04 00:19:16;;;;;;;9.35;7.38;;;;;;;14.00;94.43;99934.16;5029370;28;20021;-86
2022/09/04 00:21:55;;;;;;;8.40;6.40;;;;;;;13.98;94.06;99939.47;5012477;28;20071;-86
2022/09/04 00:24:24;;;;;;;9.07;6.35;;;;;;;13.93;94.16;99922.31;5009801;28;20025;-86
2022/09/04 00:26:58;;;;;;;7.97;6.22;;;;;;;14.00;93.91;99933.31;5009815;28;20068;-87
2022/09/04 00:29:29;;;;;;;7.75;5.82;;;;;;;13.98;93.66;99931.59;4993291;28;20033;-87
2022/09/04 00:32:07;;;;;;;8.10;6.38;;;;;;;13.93;93.71;99922.31;4993095;28;20022;-86
2022/09/04 00:35:02;;;;;;;6.75;5.90;;;;;;;13.97;93.65;99932.53;5020702;28;20509;-86
2022/09/04 00:37:55;;;;;;;7.80;6.05;;;;;;;13.96;93.65;99927.41;5091995;28;20016;-86
2022/09/04 00:40:57;;;;;;;6.85;6.10;;;;;;;13.96;93.37;99935.25;5009353;28;20126;-86
2022/09/04 00:43:41;;;;;;;8.13;6.32;;;;;;;13.94;93.55;99937.94;5009548;28;20021;-86
2022/09/04 00:46:40;;;;;;;8.05;5.85;;;;;;;13.92;93.68;99929.34;4992843;28;20034;-86
2022/09/04 00:49:35;;;;;;;10.48;6.63;;;;;;;13.90;93.71;99939.03;5009238;28;20441;-86
2022/09/04 00:52:37;;;;;;;10.82;6.25;;;;;;;13.90;93.55;99949.50;5009175;28;20383;-86
2022/09/04 00:55:30;;;;;;;7.20;5.50;;;;;;;13.88;93.74;99950.53;5009105;28;20112;-86
2022/09/04 00:58:36;;;;;;;7.75;6.30;;;;;;;13.84;93.83;99959.50;5009559;28;20298;-86
2022/09/04 01:01:02;;;;;;;6.97;6.13;;;;;;;13.83;93.92;99958.66;5010185;28;20029;-86
2022/09/04 01:03:30;;;;;;;6.97;6.25;;;;;;;13.83;94.03;99971.75;5012922;28;20281;-86
2022/09/04 01:06:02;;;;;;;8.40;6.03;;;;;;;13.82;94.16;99970.06;4996747;28;20049;-86
2022/09/04 01:09:09;;;;;;;9.07;6.10;;;;;;;13.79;94.28;99964.16;5013174;28;20310;-86
2022/09/04 01:11:42;;;;;;;8.75;6.20;;;;;;;13.75;94.42;99963.47;4958036;28;20039;-86
2022/09/04 01:14:22;;;;;;;7.93;6.38;;;;;;;13.73;94.45;99966.16;4973570;28;20026;-86
2022/09/04 01:17:08;;;;;;;7.03;6.22;;;;;;;13.73;94.44;99968.78;4974429;28;20417;-86
2022/09/04 01:20:11;;;;;;;12.02;7.30;;;;;;;13.74;94.81;99972.25;5032634;28;20033;-86
2022/09/04 01:23:06;;;;;;;8.45;6.57;;;;;;;13.68;94.80;99962.94;5016064;28;20174;-86
2022/09/04 01:25:46;;;;;;;11.43;6.53;;;;;;;13.68;95.18;99972.56;5016234;28;20122;-86
2022/09/04 01:28:33;;;;;;;9.40;7.60;;;;;;;13.65;95.42;99972.72;5032482;28;20056;-86
2022/09/04 01:31:33;;;;;;;8.18;6.32;;;;;;;13.57;95.73;99961.84;5032354;28;20115;-86
2022/09/04 01:34:07;;;;;;;8.27;6.70;;;;;;;13.59;95.93;99975.69;5015751;28;20022;-86
2022/09/04 01:37:05;;;;;;;8.98;6.28;;;;;;;13.57;96.04;99965.31;5015650;28;20026;-86
2022/09/04 01:39:35;;;;;;;8.15;6.18;;;;;;;13.53;95.88;99965.56;5032494;28;20429;-86
2022/09/04 01:42:06;;;;;;;9.50;5.93;;;;;;;13.51;96.16;99968.25;5032000;28;20037;-86
2022/09/04 01:44:32;;;;;;;10.25;7.47;;;;;;;13.48;96.52;99973.63;5032303;28;20029;-86
2022/09/04 01:47:23;;;;;;;11.68;7.75;;;;;;;13.46;96.95;99971.13;5015935;28;20071;-86
2022/09/04 01:50:05;;;;;;;12.80;7.82;;;;;;;13.37;97.15;99962.91;5093712;28;20035;-86
2022/09/04 01:53:01;;;;;;;12.75;6.70;;;;;;;13.41;97.49;99975.75;5094763;28;20028;-86
2022/09/04 01:56:03;;;;;;;12.57;8.20;;;;;;;13.38;97.81;99975.91;5094955;28;20485;-86
2022/09/04 01:58:55;;;;;;;10.77;7.45;;;;;;;13.36;98.09;99983.00;5094612;28;20066;-86
2022/09/04 02:01:53;;;;;;;9.27;7.43;;;;;;;13.34;98.29;99984.00;5093110;28;20755;-86
2022/09/04 02:04:40;;;;;;;9.68;7.55;;;;;;;13.30;98.53;99982.47;5092696;28;20388;-86
2022/09/04 02:07:32;;;;;;;11.82;7.75;;;;;;;13.27;98.63;99974.78;5093160;28;20376;-86
2022/09/04 02:10:36;;;;;;;9.95;7.80;;;;;;;13.21;98.98;99971.53;5094399;28;20016;-86
2022/09/04 02:13:21;;;;;;;9.10;7.05;;;;;;;13.15;99.38;99971.88;5050599;28;20029;-86
2022/09/04 02:16:09;;;;;;;11.68;7.75;;;;;;;13.12;99.84;99965.94;5034878;28;20436;-86
2022/09/04 02:18:47;;;;;;;9.40;8.38;;;;;;;13.08;100.00;99964.41;5051527;28;20415;-87
2022/09/04 02:21:24;;;;;;;12.75;7.75;;;;;;;13.05;100.00;99967.19;5051331;28;20061;-86
2022/09/04 02:24:04;;;;;;;11.70;7.55;;;;;;;13.01;100.00;99956.03;5034804;28;20381;-86
2022/09/04 02:26:36;;;;;;;13.27;7.75;;;;;;;12.98;100.00;99961.44;5034696;28;20032;-87
2022/09/04 02:29:38;;;;;;;11.07;7.07;;;;;;;12.93;100.00;99953.81;5034589;28;20114;-86
2022/09/04 02:32:31;;;;;;;9.90;7.55;;;;;;;12.94;100.00;99960.75;5051053;28;20584;-86
2022/09/04 02:35:20;;;;;;;10.82;7.80;;;;;;;12.88;100.00;99945.34;4953342;29;20039;-86
2022/09/04 02:37:48;;;;;;;10.25;7.70;;;;;;;12.92;100.00;99957.34;4953207;29;20086;-86
2022/09/04 02:40:39;;;;;;;11.43;7.60;;;;;;;12.86;100.00;99947.22;4953014;29;20042;-86
2022/09/04 02:43:29;;;;;;;11.27;7.85;;;;;;;12.87;100.00;99959.34;4937005;29;20130;-86
2022/09/04 02:46:17;;;;;;;10.73;8.38;;;;;;;12.86;100.00;99960.28;4953120;29;20043;-86
2022/09/04 02:49:07;;;;;;;12.27;8.73;;;;;;;12.71;100.00;99937.53;4935742;28;20059;-86
2022/09/04 02:51:44;;;;;;;10.97;8.47;;;;;;;12.80;100.00;99957.97;4972288;28;20138;-86
2022/09/04 02:54:20;;;;;;;13.48;8.82;;;;;;;12.79;100.00;99956.28;4955686;28;20031;-86
2022/09/04 02:57:08;;;;;;;10.65;8.27;;;;;;;12.78;100.00;99952.00;4972102;28;20419;-86
2022/09/04 03:00:07;;;;;;;10.05;8.57;;;;;;;12.74;100.00;99956.53;4972137;28;20034;-86
2022/09/04 03:02:40;;;;;;;13.63;8.23;;;;;;;12.70;100.00;99946.31;4972068;28;20062;-86
2022/09/04 03:05:18;;;;;;;10.52;8.57;;;;;;;12.69;100.00;99950.69;4971564;28;20049;-86
2022/09/04 03:07:50;;;;;;;12.40;8.55;;;;;;;12.57;100.00;99932.16;4972017;28;20023;-86
2022/09/04 03:10:23;;;;;;;11.20;9.05;;;;;;;12.52;100.00;99931.56;4955474;28;20033;-86
2022/09/04 03:13:04;;;;;;;10.63;8.50;;;;;;;12.57;100.00;99946.06;5006106;28;20041;-86
2022/09/04 03:15:44;;;;;;;11.43;7.75;;;;;;;12.55;100.00;99947.91;5010713;28;20530;-86
2022/09/04 03:18:19;;;;;;;10.20;8.30;;;;;;;12.56;100.00;99957.47;5010463;28;20025;-86
2022/09/04 03:21:10;;;;;;;11.82;8.25;;;;;;;12.52;100.00;99950.69;5010698;28;20026;-86
2022/09/04 03:23:42;;;;;;;12.05;8.45;;;;;;;12.50;100.00;99942.06;4993759;28;20036;-86
2022/09/04 03:26:26;;;;;;;11.75;7.82;;;;;;;12.50;100.00;99949.91;5064469;28;20114;-86
2022/09/04 03:29:04;;;;;;;11.10;8.27;;;;;;;12.48;100.00;99943.94;5092971;28;20444;-86
2022/09/04 03:31:49;;;;;;;10.45;7.63;;;;;;;12.47;100.00;99960.50;5092623;28;20023;-86
2022/09/04 03:34:36;;;;;;;11.63;8.73;;;;;;;12.46;100.00;99957.03;5092700;28;20028;-86
2022/09/04 03:37:18;;;;;;;10.07;8.05;;;;;;;12.40;100.00;99946.06;5092742;28;20047;-86
2022/09/04 03:39:50;;;;;;;11.75;8.70;;;;;;;12.40;100.00;99951.28;5091488;28;20377;-86
2022/09/04 03:42:34;;;;;;;11.88;8.23;;;;;;;12.36;100.00;99957.59;5091078;28;20379;-86
2022/09/04 03:45:07;;;;;;;10.70;8.20;;;;;;;12.35;100.00;99961.13;5092741;28;20016;-85
2022/09/04 03:47:48;;;;;;;11.02;8.52;;;;;;;12.28;100.00;99955.34;5092669;28;20027;-86
2022/09/04 03:50:55;;;;;;;11.50;8.68;;;;;;;12.24;100.00;99957.25;5091015;28;20640;-86
2022/09/04 03:53:41;;;;;;;10.05;7.88;;;;;;;12.27;100.00;99969.34;5092493;28;20027;-85
2022/09/04 03:56:15;;;;;;;9.77;8.43;;;;;;;12.24;100.00;99961.63;5092500;28;20106;-86
2022/09/04 03:58:50;;;;;;;13.70;8.27;;;;;;;12.26;100.00;99959.78;5092230;28;20028;-86
2022/09/04 04:01:29;;;;;;;13.25;8.07;;;;;;;12.26;100.00;99965.00;5092105;28;20081;-86
2022/09/04 04:04:34;;;;;;;12.25;8.10;;;;;;;12.27;100.00;99971.94;5092202;28;20652;-86
2022/09/04 04:07:22;;;;;;;10.30;7.85;;;;;;;12.23;100.00;99968.63;5090975;28;20032;-86
2022/09/04 04:10:16;;;;;;;10.65;8.00;;;;;;;12.24;100.00;99966.88;5092539;28;20555;-85
2022/09/04 04:13:03;;;;;;;10.43;7.68;;;;;;;12.23;100.00;99968.63;5091006;28;20012;-85
2022/09/04 04:16:00;;;;;;;13.35;8.68;;;;;;;12.25;100.00;99968.56;5090475;28;20558;-86
2022/09/04 04:18:40;;;;;;;11.05;8.15;;;;;;;12.26;100.00;99967.63;5090703;28;20023;-86
2022/09/04 04:21:27;;;;;;;10.75;7.55;;;;;;;12.28;100.00;99981.47;5090820;28;20464;-86
2022/09/04 04:24:13;;;;;;;11.38;8.90;;;;;;;12.23;100.00;99967.78;5090756;28;20031;-86
2022/09/04 04:26:41;;;;;;;9.23;7.78;;;;;;;12.30;100.00;99984.84;5090880;28;20031;-85
2022/09/04 04:29:29;;;;;;;10.52;8.68;;;;;;;12.31;100.00;99970.03;5090823;28;20059;-86
2022/09/04 04:32:09;;;;;;;10.93;8.32;;;;;;;12.36;100.00;99971.50;5091948;28;20020;-86
2022/09/04 04:34:57;;;;;;;8.93;7.07;;;;;;;12.39;100.00;99983.56;5091991;28;20024;-85
2022/09/04 04:37:53;;;;;;;9.93;7.75;;;;;;;12.41;100.00;99992.16;5095920;28;20024;-86
2022/09/04 04:40:27;;;;;;;9.32;7.20;;;;;;;12.45;100.00;99988.47;5094603;28;20088;-86
2022/09/04 04:43:11;;;;;;;8.88;7.43;;;;;;;12.49;100.00;99995.25;5095894;28;20073;-86
2022/09/04 04:45:49;;;;;;;12.00;7.75;;;;;;;12.47;100.00;99982.28;5096199;28;20107;-86
2022/09/04 04:48:14;;;;;;;9.18;7.18;;;;;;;12.59;100.00;100000.88;5095782;28;20027;-86
2022/09/04 04:51:04;;;;;;;10.50;7.40;;;;;;;12.58;100.00;100000.03;5094685;28;20024;-86
2022/09/04 04:53:50;;;;;;;9.97;7.80;;;;;;;12.70;100.00;100006.41;5094592;28;20016;-86
2022/09/04 04:56:32;;;;;;;12.00;8.52;;;;;;;12.74;100.00;100000.94;5094227;28;20115;-86
2022/09/04 04:59:19;;;;;;;31.33;25.27;;;;;;;12.83;100.00;99996.19;5095811;28;20449;-86
2022/09/04 05:02:17;;;;;;;10.60;7.90;;;;;;;12.96;100.00;99999.88;5094338;28;20031;-86
2022/09/04 05:04:52;;;;;;;9.57;7.50;;;;;;;12.98;100.00;99992.81;5095529;28;20679;-86
2022/09/04 05:07:42;;;;;;;9.38;7.40;;;;;;;13.19;100.00;100017.03;5094123;28;20067;-86
2022/09/04 05:10:44;;;;;;;10.50;7.65;;;;;;;13.47;100.00;100016.44;5095811;28;20051;-86
2022/09/04 05:13:26;;;;;;;9.63;7.75;;;;;;;13.74;98.96;100022.00;5036100;28;20120;-86
2022/09/04 05:16:02;;;;;;;9.48;6.88;;;;;;;14.02;97.63;100023.94;5036025;28;20385;-86
2022/09/04 05:18:48;;;;;;;7.93;6.63;;;;;;;14.31;96.75;100019.72;5035954;28;20025;-86
2022/09/04 05:21:22;;;;;;;10.18;7.18;;;;;;;14.46;94.16;100025.88;5052484;28;20373;-86
2022/09/04 05:24:03;;;;;;;8.95;7.07;;;;;;;14.71;93.09;100031.44;5052838;28;20037;-86
2022/09/04 05:26:34;;;;;;;9.20;7.18;;;;;;;15.14;91.66;100035.97;5035562;28;20424;-87
2022/09/04 05:28:59;;;;;;;8.07;6.47;;;;;;;15.51;90.05;100039.00;5052525;28;20025;-87
2022/09/04 05:31:51;;;;;;;8.80;7.00;;;;;;;16.49;85.06;100040.75;5035558;28;20477;-87
2022/09/04 05:35:10;;;;;;;9.05;5.90;;;;;;;16.88;81.84;100038.16;5035593;28;20115;-87
2022/09/04 05:38:07;;;;;;;6.85;6.00;;;;;;;16.81;82.71;100036.03;5035057;28;20043;-87
2022/09/04 05:40:53;;;;;;;8.57;7.65;;;;;;;16.61;82.77;100032.06;5052105;28;20032;-87
2022/09/04 05:43:29;;;;;;;8.52;7.13;;;;;;;16.69;82.22;100037.66;5035308;28;20044;-86
2022/09/04 05:46:14;;;;;;;7.43;5.97;;;;;;;16.54;82.31;100036.88;5052325;28;20021;-87
2022/09/04 05:49:07;;;;;;;11.40;6.68;;;;;;;16.66;82.57;100048.38;5059192;28;20036;-87
2022/09/04 05:51:51;;;;;;;7.20;6.20;;;;;;;16.90;81.54;100052.06;5093436;28;20020;-87
2022/09/04 05:54:52;;;;;;;7.35;5.70;;;;;;;17.07;81.17;100050.94;5094945;28;20460;-87
2022/09/04 05:57:29;;;;;;;;;;;;;;;17.02;80.72;100049.53;5094893;28;20023;-87
2022/09/04 06:00:17;;;;;;;7.97;6.30;;;;;;;17.16;80.55;100055.56;5094908;28;19998;-87
2022/09/04 06:03:00;;;;;;;7.50;6.28;;;;;;;17.57;78.58;100058.94;5091978;28;20032;-87
2022/09/04 06:05:34;;;;;;;8.23;5.68;;;;;;;18.49;74.98;100060.38;5074712;28;20052;-87
2022/09/04 06:08:15;;;;;;;9.35;6.85;;;;;;;18.63;74.69;100061.06;5074887;28;20039;-87
2022/09/04 06:10:46;;;;;;;10.27;5.95;;;;;;;18.41;73.71;100067.06;5074709;28;20028;-88
2022/09/04 06:13:17;;;;;;;8.77;5.13;;;;;;;18.57;74.29;100069.41;5091906;28;20024;-88
2022/09/04 06:16:16;;;;;;;6.20;5.43;;;;;;;19.31;71.71;100069.25;5074853;28;20020;-87
2022/09/04 06:19:35;;;;;;;30.90;23.98;;;;;;;19.54;69.70;100062.19;5091829;28;20063;-87
2022/09/04 06:22:31;;;;;;;8.95;5.85;;;;;;;19.26;70.39;100066.09;5011905;28;20096;-87
2022/09/04 06:24:58;;;;;;;6.25;4.80;;;;;;;18.81;72.30;100061.50;5011794;28;20463;-87
2022/09/04 06:28:01;;;;;;;9.10;6.13;;;;;;;19.11;71.50;100068.09;5011460;28;20034;-87
2022/09/04 06:30:41;;;;;;;7.78;5.65;;;;;;;18.93;71.92;100072.97;5011567;28;20034;-87
2022/09/04 06:33:15;;;;;;;7.38;5.70;;;;;;;19.36;71.17;100069.72;5016440;28;20107;-85
2022/09/04 06:36:05;;;;;;;6.80;6.03;;;;;;;19.41;70.55;100078.97;5014330;28;20055;-85
2022/09/04 06:39:16;;;;;;;9.30;6.40;;;;;;;19.30;69.82;100073.69;5031187;28;20040;-85
2022/09/04 06:41:59;;;;;;;;;;;;;;;19.11;70.25;100083.94;5011571;28;20034;-85
2022/09/04 06:44:46;;;;;;;7.55;6.13;;;;;;;19.67;70.25;100082.25;4994721;28;19912;-85
2022/09/04 06:47:20;;;;;;;10.40;5.63;;;;;;;19.77;69.39;100087.69;5011142;28;20619;-85
2022/09/04 06:50:04;;;;;;;9.45;6.95;;;;;;;19.56;69.61;100092.81;5011247;28;20036;-85
2022/09/04 06:52:39;;;;;;;10.35;7.30;;;;;;;19.43;69.74;100092.91;5010883;28;20095;-87
2022/09/04 06:55:26;;;;;;;14.93;9.90;;;;;;;20.02;68.56;100099.84;5025109;28;20163;-87
2022/09/04 06:58:06;;;;;;;10.07;7.05;;;;;;;19.96;67.95;100102.94;5053706;28;20520;-87
2022/09/04 07:00:59;;;;;;;7.32;6.35;;;;;;;20.04;68.14;100097.91;5070478;28;20085;-88
2022/09/04 07:03:43;;;;;;;53.80;33.10;;;;;;;20.48;66.57;100096.22;5003531;28;20037;-88
2022/09/04 07:06:19;;;;;;;9.13;6.53;;;;;;;21.04;65.18;100098.66;5010991;28;20133;-87
2022/09/04 07:08:44;;;;;;;6.70;6.00;;;;;;;21.53;64.44;100088.41;5010764;28;20412;-88
2022/09/04 07:11:17;;;;;;;9.80;6.18;;;;;;;21.79;64.05;100092.31;4994103;28;20028;-88
2022/09/04 07:14:19;;;;;;;7.93;5.95;;;;;;;23.21;59.97;100097.34;4994123;28;20493;-88
2022/09/04 07:17:32;;;;;;;7.78;5.50;;;;;;;27.41;52.49;100108.34;4983634;28;20192;-88
2022/09/04 07:20:15;;;;;;;8.90;5.38;;;;;;;29.74;45.94;100106.53;4935929;29;20045;-89
2022/09/04 07:23:13;;;;;;;6.45;4.65;;;;;;;31.16;44.08;100106.97;4936152;29;20030;-88
2022/09/04 07:25:56;;;;;;;6.18;5.00;;;;;;;32.17;41.25;100104.78;4936113;29;20031;-88
2022/09/04 07:28:42;;;;;;;6.45;5.35;;;;;;;32.64;39.61;100105.78;4952294;29;20130;-89
2022/09/04 07:31:19;;;;;;;6.60;5.28;;;;;;;32.54;38.74;100103.50;4952267;29;20035;-89
2022/09/04 07:33:55;;;;;;;5.55;4.60;;;;;;;34.26;37.87;100094.47;4936039;29;20037;-89
2022/09/04 07:36:33;;;;;;;5.72;5.07;;;;;;;35.72;35.15;100102.34;4952139;29;20035;-88
2022/09/04 07:39:16;;;;;;;8.25;5.10;;;;;;;36.88;34.34;100103.19;4952283;29;20038;-89
2022/09/04 07:41:44;;;;;;;5.95;5.15;;;;;;;37.30;33.67;100108.59;5010211;28;20060;-89
2022/09/04 07:44:17;;;;;;;5.57;4.18;;;;;;;37.88;33.16;100102.34;5010708;28;20161;-88
2022/09/04 07:46:59;;;;;;;8.48;5.18;;;;;;;37.91;32.40;100103.72;5010313;28;20037;-89
2022/09/04 07:49:41;;;;;;;6.18;4.72;;;;;;;37.29;32.95;100108.78;5010206;28;20517;-88
2022/09/04 07:52:21;;;;;;;5.18;4.18;;;;;;;39.40;31.47;100108.09;5010156;28;20026;-89
2022/09/04 07:55:23;;;;;;;6.53;4.47;;;;;;;39.57;30.97;100106.19;5009992;28;20032;-88
2022/09/04 07:58:07;;;;;;;4.65;4.15;;;;;;;40.10;30.41;100114.81;5092469;28;20057;-87
2022/09/04 08:00:48;;;;;;;5.00;4.32;;;;;;;38.43;31.34;100126.31;5092182;28;20525;-86
2022/09/04 08:03:37;;;;;;;6.05;4.88;;;;;;;35.08;34.16;100122.50;5092542;28;20028;-88
2022/09/04 08:06:05;;;;;;;8.38;5.38;;;;;;;33.44;36.00;100126.44;5092366;28;20020;-88
2022/09/04 08:08:36;;;;;;;6.07;4.93;;;;;;;30.92;39.49;100124.34;5091841;28;20023;-88
2022/09/04 08:11:06;;;;;;;5.55;4.30;;;;;;;28.65;42.66;100135.38;5090556;28;20111;-88
2022/09/04 08:13:37;;;;;;;6.85;5.65;;;;;;;27.29;46.05;100146.13;5090848;28;20087;-88
2022/09/04 08:16:05;;;;;;;5.43;4.72;;;;;;;25.74;49.05;100142.03;5090996;28;20382;-88
2022/09/04 08:18:51;;;;;;;5.40;4.85;;;;;;;24.56;52.11;100146.66;5092018;28;20406;-88
2022/09/04 08:21:21;;;;;;;5.88;5.13;;;;;;;23.74;54.21;100142.06;5092082;28;20031;-88
2022/09/04 08:24:08;;;;;;;11.63;9.18;;;;;;;23.02;55.26;100142.56;5092066;28;20052;-87
2022/09/04 08:27:12;;;;;;;6.72;5.22;;;;;;;22.33;56.96;100148.66;5090640;28;20028;-87
2022/09/04 08:30:02;;;;;;;6.38;5.47;;;;;;;22.02;59.31;100139.88;5090464;28;20031;-88
2022/09/04 08:32:59;;;;;;;6.50;4.72;;;;;;;21.40;60.81;100136.28;5090680;28;20028;-87
2022/09/04 08:35:43;;;;;;;5.60;4.93;;;;;;;21.02;61.68;100144.75;5090773;28;20118;-88
2022/09/04 08:38:28;;;;;;;8.65;5.70;;;;;;;20.95;62.56;100147.09;5090573;28;20593;-87
2022/09/04 08:41:11;;;;;;;5.18;4.68;;;;;;;20.81;63.64;100145.53;5090746;28;20054;-88
2022/09/04 08:43:43;;;;;;;5.97;4.82;;;;;;;20.61;64.60;100160.41;5090517;28;20123;-87
2022/09/04 08:46:33;;;;;;;7.38;4.47;;;;;;;20.57;64.73;100166.06;5091796;28;20039;-87
2022/09/04 08:49:08;;;;;;;8.30;6.53;;;;;;;20.52;64.78;100160.28;5092032;28;20062;-88
2022/09/04 08:51:55;;;;;;;8.45;6.72;;;;;;;20.44;65.35;100174.94;5090367;28;20036;-88
2022/09/04 08:55:03;;;;;;;6.40;4.65;;;;;;;20.28;65.12;100168.34;5090564;28;20051;-88
2022/09/04 08:57:49;;;;;;;5.70;4.30;;;;;;;20.11;66.31;100167.03;5049054;28;20060;-88
2022/09/04 09:00:28;;;;;;;6.45;4.25;;;;;;;19.87;65.79;100159.19;5049460;28;20485;-88
2022/09/04 09:03:09;;;;;;;4.43;3.55;;;;;;;20.05;66.63;100173.63;5032191;28;20098;-88
2022/09/04 09:06:09;;;;;;;6.18;4.18;;;;;;;19.91;65.58;100174.69;5048713;28;20060;-88
2022/09/04 09:08:53;;;;;;;8.23;4.60;;;;;;;19.65;66.83;100168.75;4989537;28;20030;-87
2022/09/04 09:11:37;;;;;;;5.00;3.45;;;;;;;19.62;67.47;100173.44;4989632;28;20080;-87
2022/09/04 09:14:23;;;;;;;5.55;4.45;;;;;;;19.68;67.28;100179.09;4989733;28;20023;-88
2022/09/04 09:16:54;;;;;;;3.97;3.42;;;;;;;19.72;67.57;100179.72;4989212;28;20194;-88
2022/09/04 09:19:45;;;;;;;5.50;4.07;;;;;;;19.69;67.83;100187.88;4989668;28;20035;-88
2022/09/04 09:22:31;;;;;;;4.57;3.58;;;;;;;19.64;67.67;100179.47;4974995;28;20483;-87
2022/09/04 09:25:21;;;;;;;4.68;3.53;;;;;;;19.53;67.03;100182.03;4993359;28;20034;-88
2022/09/04 09:28:31;;;;;;;3.72;3.17;;;;;;;19.54;67.93;100186.34;4993402;28;20485;-88
2022/09/04 09:31:21;;;;;;;4.85;3.92;;;;;;;19.44;68.77;100194.13;4973786;28;20075;-88
2022/09/04 09:34:14;;;;;;;4.90;3.70;;;;;;;19.36;68.54;100186.78;4981073;28;20034;-87
2022/09/04 09:37:01;;;;;;;4.82;4.38;;;;;;;19.40;67.88;100188.22;4995999;28;20072;-88
2022/09/04 09:39:33;;;;;;;4.05;3.65;;;;;;;19.33;68.46;100178.22;5012817;28;20040;-87
2022/09/04 09:42:19;;;;;;;4.85;3.65;;;;;;;19.47;68.88;100177.19;5021824;28;20500;-88
2022/09/04 09:44:51;;;;;;;4.78;4.07;;;;;;;19.55;69.12;100178.31;5035179;28;20028;-88
2022/09/04 09:48:01;;;;;;;4.05;3.42;;;;;;;19.57;68.69;100194.06;5052144;28;20045;-88
2022/09/04 09:51:01;;;;;;;4.38;3.22;;;;;;;19.71;69.07;100191.22;4992691;28;20066;-87
2022/09/04 09:53:38;;;;;;;7.68;6.57;;;;;;;19.90;70.27;100195.97;4992714;28;20106;-87
2022/09/04 09:56:41;;;;;;;3.92;3.53;;;;;;;19.97;68.00;100194.50;4992471;28;20069;-88
2022/09/04 09:59:24;;;;;;;4.05;3.53;;;;;;;20.07;69.43;100192.88;4993039;28;20030;-86
2022/09/04 10:02:15;;;;;;;6.18;3.92;;;;;;;20.16;67.34;100188.66;4992698;28;20189;-92
2022/09/04 10:04:58;;;;;;;;;;;;;;;20.16;67.79;100193.94;4992679;28;20089;-86
2022/09/04 10:07:42;;;;;;;5.80;3.90;;;;;;;20.14;68.24;100174.69;5010277;28;19968;-86
2022/09/04 10:10:49;;;;;;;5.00;3.80;;;;;;;20.32;68.04;100193.59;5032275;28;20025;-92
2022/09/04 10:13:46;;;;;;;5.13;3.70;;;;;;;20.16;67.82;100192.16;5035766;28;20022;-80
2022/09/04 10:16:18;;;;;;;4.15;3.65;;;;;;;20.24;67.71;100178.31;5049129;28;20025;-81
2022/09/04 10:19:04;;;;;;;4.10;3.58;;;;;;;20.36;67.97;100182.66;5031533;28;20026;-81
2022/09/04 10:21:49;;;;;;;4.20;3.30;;;;;;;20.40;67.76;100180.63;5041861;28;20113;-81
2022/09/04 10:24:20;;;;;;;4.93;3.67;;;;;;;20.49;68.85;100181.72;5051468;28;20083;-81
2022/09/04 10:27:23;;;;;;;6.68;3.28;;;;;;;20.59;67.67;100190.59;5078199;27;20035;-81
2022/09/04 10:30:00;;;;;;;6.72;3.60;;;;;;;20.63;67.30;100192.03;5125949;27;20472;-81
2022/09/04 10:32:34;;;;;;;4.72;3.40;;;;;;;20.62;67.01;100185.06;5114318;28;20452;-81
2022/09/04 10:35:08;;;;;;;4.32;3.45;;;;;;;20.69;67.02;100183.63;5113800;28;20020;-81
2022/09/04 10:37:55;;;;;;;3.60;3.30;;;;;;;20.76;66.57;100182.13;5114408;28;20016;-82
2022/09/04 10:40:37;;;;;;;3.97;3.50;;;;;;;20.71;65.49;100184.31;5114238;27;20028;-81
2022/09/04 10:43:11;;;;;;;3.47;3.00;;;;;;;20.68;65.23;100176.63;5114127;28;20460;-81
2022/09/04 10:45:44;;;;;;;3.67;3.08;;;;;;;20.74;65.62;100170.00;5113939;28;20501;-81
2022/09/04 10:48:22;;;;;;;6.38;3.30;;;;;;;20.78;65.38;100182.88;5132376;27;20062;-82
2022/09/04 10:51:12;;;;;;;3.38;3.08;;;;;;;20.67;64.35;100191.66;5132936;27;20027;-82
2022/09/04 10:54:16;;;;;;;4.00;3.05;;;;;;;20.55;65.73;100173.28;5133973;27;20019;-81
2022/09/04 10:56:41;;;;;;;3.33;3.00;;;;;;;20.71;66.82;100180.84;5133963;27;20023;-82
2022/09/04 10:59:20;;;;;;;3.50;3.20;;;;;;;20.84;66.47;100177.06;5134040;27;20042;-82
2022/09/04 11:01:54;;;;;;;4.28;3.13;;;;;;;20.83;65.09;100182.50;5133850;27;20023;-82
2022/09/04 11:04:28;;;;;;;3.53;3.20;;;;;;;20.77;66.11;100190.91;5134104;27;20035;-82
2022/09/04 11:07:16;;;;;;;3.13;2.83;;;;;;;20.68;64.63;100166.88;5133833;27;20027;-82
2022/09/04 11:10:18;;;;;;;4.65;2.95;;;;;;;20.80;64.60;100188.03;5132397;27;20114;-82
2022/09/04 11:12:46;;;;;;;5.20;3.17;;;;;;;20.68;63.78;100182.75;5133850;27;20023;-82
2022/09/04 11:15:41;;;;;;;3.20;2.90;;;;;;;20.64;64.05;100186.59;5133855;27;20023;-81
2022/09/04 11:18:32;;;;;;;3.67;3.08;;;;;;;20.63;65.21;100170.84;5133743;27;20064;-82
2022/09/04 11:21:04;;;;;;;3.88;3.03;;;;;;;20.70;64.84;100182.66;5125273;27;20023;-81
2022/09/04 11:24:09;;;;;;;5.07;3.35;;;;;;;20.73;65.22;100179.75;5113074;28;20034;-81
2022/09/04 11:27:00;;;;;;;3.08;2.78;;;;;;;20.78;65.21;100171.44;5112840;28;20463;-82
2022/09/04 11:29:34;;;;;;;3.15;2.88;;;;;;;20.89;64.64;100169.59;5113076;28;20026;-81
2022/09/04 11:32:11;;;;;;;4.00;3.30;;;;;;;20.85;65.42;100154.91;5112864;28;20020;-81
2022/09/04 11:34:52;;;;;;;5.45;3.72;;;;;;;20.93;64.31;100151.66;5112975;28;20106;-81
2022/09/04 11:37:29;;;;;;;3.47;3.17;;;;;;;21.01;64.31;100154.50;5112630;28;20027;-81
2022/09/04 11:40:10;;;;;;;3.40;3.03;;;;;;;20.96;63.79;100146.09;5112902;28;20023;-82
2022/09/04 11:42:49;;;;;;;5.20;3.20;;;;;;;20.95;63.85;100157.66;5112833;28;20027;-82
2022/09/04 11:46:08;;;;;;;3.20;2.90;;;;;;;21.07;64.83;100161.97;5112499;28;20022;-82
2022/09/04 11:49:08;;;;;;;3.35;3.03;;;;;;;21.16;65.21;100155.91;5052906;28;20030;-82
2022/09/04 11:52:04;;;;;;;6.75;3.42;;;;;;;21.13;64.64;100148.19;5069705;28;20194;-82
2022/09/04 11:54:50;;;;;;;6.03;3.40;;;;;;;21.18;64.89;100161.91;5069607;28;20043;-82
2022/09/04 11:57:39;;;;;;;3.58;3.25;;;;;;;21.22;66.09;100164.31;5069331;28;20139;-82
2022/09/04 12:00:13;;;;;;;3.67;3.28;;;;;;;21.08;63.72;100158.34;5069403;28;20027;-81
2022/09/04 12:03:11;;;;;;;6.13;3.53;;;;;;;21.07;63.69;100169.03;5069296;28;20135;-81
2022/09/04 12:06:12;;;;;;;5.78;3.13;;;;;;;21.02;64.43;100158.84;5069223;28;20052;-81
2022/09/04 12:09:14;;;;;;;3.58;3.10;;;;;;;21.10;64.28;100148.44;4990042;28;20372;-82
2022/09/04 12:12:10;;;;;;;3.70;3.13;;;;;;;21.20;64.08;100160.97;4989802;28;20026;-82
2022/09/04 12:14:55;;;;;;;3.45;3.00;;;;;;;21.18;64.62;100142.53;4990008;28;20451;-82
2022/09/04 12:17:48;;;;;;;3.30;2.53;;;;;;;21.23;64.97;100139.50;4989654;28;20022;-82
2022/09/04 12:20:44;;;;;;;7.20;3.08;;;;;;;21.28;64.42;100148.75;4989903;28;20121;-82
2022/09/04 12:23:40;;;;;;;3.47;2.80;;;;;;;21.29;63.80;100157.53;5023796;28;20069;-82
2022/09/04 12:26:20;;;;;;;2.70;2.50;;;;;;;21.22;62.78;100151.06;5029141;28;20041;-82
2022/09/04 12:28:55;;;;;;;3.35;3.05;;;;;;;21.35;64.19;100157.03;5028097;28;20026;-84
2022/09/04 12:31:35;;;;;;;2.78;2.58;;;;;;;21.30;62.40;100143.31;5027496;28;20489;-81
2022/09/04 12:34:19;;;;;;;;;;;;;;;21.37;64.15;100153.31;5027950;28;20060;-81
2022/09/04 12:37:31;;;;;;;3.85;3.22;;;;;;;21.39;63.36;100151.34;5028957;28;19909;-81
2022/09/04 12:40:05;;;;;;;3.22;2.80;;;;;;;21.33;63.88;100154.53;5008948;28;20670;-81
2022/09/04 12:42:46;;;;;;;3.47;3.00;;;;;;;21.30;63.38;100156.56;5008943;28;20030;-81
2022/09/04 12:45:22;;;;;;;;;;;;;;;21.32;64.16;100157.28;5027071;28;20029;-81